LLT weather

La Loma Airport
Trincheras, Sonora, Mexico

Public forecast

Using degrees Celsius for public forecast. Weather courtesy of forecast.io.

METAR (pilot weather report)

Closest report is Nogales International Airport, 56.2 nm (104.1 km) NNE. Retrieved 2019/05/19 13:54 UTC (28 minutes ago):

KOLS 191354Z AUTO 00000KT 10SM CLR 14/M04 A2995 RMK AO2 SLP089 T01391039

TAF (pilot weather forecast)

Closest forecast is Nogales International Airport, 56.2 nm (104.1 km) NNE. Retrieved 2019/05/19 12:34 UTC (2 hours ago):

TAF KOLS 191132Z 1912/2012 16004KT P6SM BKN250 FM191500 18009KT P6SM SCT150 BKN200 FM191800 20015G23KT P6SM BKN200 FM192100 22020G30KT P6SM FEW080 BKN180 FM200200 22014G22KT P6SM SCT080 BKN140 FM200600 19008KT P6SM BKN200